createdAt,value
2022-10-28T00:04:14.784Z,26.10
2022-10-28T00:19:16.813Z,33.65
2022-10-28T00:34:21.416Z,23.80
2022-10-28T00:49:30.299Z,30.95
2022-10-28T01:04:32.599Z,24.30
2022-10-28T01:19:58.923Z,33.35
2022-10-28T01:35:00.751Z,29.48
2022-10-28T01:50:08.730Z,22.02
2022-10-28T02:05:40.109Z,29.75
2022-10-28T02:21:06.313Z,24.73
2022-10-28T02:36:14.001Z,31.25
2022-10-28T02:51:19.068Z,25.67
2022-10-28T03:06:21.055Z,24.65
2022-10-28T03:21:22.965Z,24.40
2022-10-28T03:36:24.896Z,29.52
2022-10-28T03:51:26.809Z,24.60
2022-10-28T04:06:28.654Z,22.42
2022-10-28T04:21:30.516Z,29.42
2022-10-28T04:36:32.384Z,38.78
2022-10-28T04:51:34.324Z,23.80
2022-10-28T05:06:36.245Z,20.00
2022-10-28T05:21:38.193Z,19.70
2022-10-28T05:36:40.165Z,21.38
2022-10-28T05:51:42.069Z,26.77
2022-10-28T06:06:43.956Z,26.65
2022-10-28T06:21:44.311Z,31.38
2022-10-28T06:36:47.141Z,29.23
2022-10-28T06:51:50.589Z,26.90
2022-10-28T07:06:55.866Z,25.27
2022-10-28T07:21:57.844Z,23.70
2022-10-28T07:36:59.874Z,18.45
2022-10-28T07:52:01.864Z,13.20
2022-10-28T08:07:03.765Z,11.07
2022-10-28T08:22:05.701Z,11.80
2022-10-28T08:37:07.704Z,10.50
2022-10-28T08:52:47.965Z,10.15
2022-10-28T09:07:50.802Z,5.63
2022-10-28T09:22:59.849Z,8.85
2022-10-28T09:38:25.898Z,6.38
2022-10-28T09:53:46.520Z,4.75
2022-10-28T10:08:48.481Z,4.20
2022-10-28T10:23:50.336Z,4.63
2022-10-28T10:38:54.725Z,3.72
2022-10-28T10:54:01.806Z,4.30
2022-10-28T11:09:25.162Z,3.97
2022-10-28T11:24:56.923Z,3.03
2022-10-28T11:40:18.510Z,6.40
2022-10-28T11:55:34.887Z,4.47
2022-10-28T12:10:39.832Z,4.68
2022-10-28T12:25:46.471Z,2.05
2022-10-28T12:41:15.827Z,4.43
2022-10-28T12:56:26.571Z,4.78
2022-10-28T13:11:35.133Z,4.18
2022-10-28T13:26:41.229Z,2.20
2022-10-28T13:41:46.222Z,3.10
2022-10-28T13:56:50.502Z,5.63
2022-10-28T14:12:30.232Z,5.85
2022-10-28T14:27:41.867Z,6.78
2022-10-28T14:42:52.729Z,3.83
2022-10-28T14:57:55.222Z,3.00
2022-10-28T15:12:58.968Z,4.88
2022-10-28T15:28:00.926Z,4.90
2022-10-28T15:43:05.223Z,6.88
2022-10-28T15:58:12.634Z,9.05
2022-10-28T16:13:25.135Z,9.85
2022-10-28T16:28:28.396Z,6.95
2022-10-28T16:43:31.285Z,7.35
2022-10-28T16:58:34.396Z,7.75
2022-10-28T17:13:36.366Z,8.00
2022-10-28T17:28:38.336Z,8.77
2022-10-28T17:43:40.378Z,11.13
2022-10-28T17:58:42.332Z,11.18
2022-10-28T18:13:46.127Z,13.23
2022-10-28T18:28:49.180Z,13.38
2022-10-28T18:43:59.965Z,13.65
2022-10-28T18:59:04.218Z,14.98
2022-10-28T19:14:06.728Z,12.63
2022-10-28T19:29:10.146Z,17.70
2022-10-28T19:44:12.053Z,15.75
2022-10-28T19:59:13.999Z,22.92
2022-10-28T20:14:16.112Z,17.73
2022-10-28T20:29:18.025Z,15.55
2022-10-28T20:44:20.075Z,15.07
2022-10-28T20:59:21.986Z,18.92
2022-10-28T21:14:23.930Z,12.35
2022-10-28T21:29:25.887Z,20.00
2022-10-28T21:44:27.821Z,21.55
2022-10-28T21:59:29.904Z,19.25
2022-10-28T22:14:32.708Z,15.07
2022-10-28T22:29:34.696Z,14.88
2022-10-28T22:44:36.594Z,14.40
2022-10-28T22:59:38.455Z,13.20
2022-10-28T23:14:40.334Z,12.27
2022-10-28T23:29:42.241Z,11.05
2022-10-28T23:44:44.988Z,13.07
2022-10-28T23:59:46.856Z,17.50
